createdAt,value
2018-03-03T02:39:51.856Z,0
2018-03-03T05:32:04.017Z,3
2018-03-03T05:37:34.403Z,7
2018-03-03T05:40:04.530Z,10
2018-03-03T05:42:04.662Z,13
2018-03-03T05:43:34.711Z,17
2018-03-03T05:44:34.772Z,20
2018-03-03T05:45:34.839Z,23
2018-03-03T05:46:34.902Z,27
2018-03-03T05:47:34.947Z,30
2018-03-03T05:48:35.011Z,33
2018-03-03T05:49:05.096Z,37
2018-03-03T05:49:35.069Z,40
2018-03-03T05:50:05.174Z,43
2018-03-03T05:51:05.185Z,47
2018-03-03T05:51:35.245Z,50
2018-03-03T05:52:05.287Z,53
2018-03-03T05:52:35.254Z,57
2018-03-03T05:53:05.350Z,60
2018-03-03T05:53:35.349Z,63
2018-03-03T05:54:05.398Z,70
2018-03-03T05:54:35.457Z,73
2018-03-03T05:55:05.496Z,77
2018-03-03T05:55:35.480Z,80
2018-03-03T05:56:05.537Z,87
2018-03-03T05:56:35.543Z,90
2018-03-03T05:57:05.631Z,97
2018-03-03T05:57:35.623Z,100
2018-03-03T05:58:05.652Z,107
2018-03-03T05:58:35.671Z,110
2018-03-03T05:59:05.716Z,117
2018-03-03T05:59:35.725Z,123
2018-03-03T06:00:05.788Z,130
2018-03-03T06:00:35.787Z,137
2018-03-03T06:01:05.793Z,140
2018-03-03T06:01:35.883Z,147
2018-03-03T06:02:05.918Z,153
2018-03-03T06:02:35.879Z,163
2018-03-03T06:03:05.984Z,170
2018-03-03T06:03:35.966Z,177
2018-03-03T06:04:06.022Z,183
2018-03-03T06:04:36.069Z,190
2018-03-03T06:05:06.070Z,200
2018-03-03T06:05:36.059Z,207
2018-03-03T06:06:06.147Z,213
2018-03-03T06:06:36.178Z,220
2018-03-03T06:07:06.206Z,230
2018-03-03T06:07:36.237Z,237
2018-03-03T06:08:06.296Z,247
2018-03-03T06:08:36.314Z,257
2018-03-03T06:09:06.338Z,263
2018-03-03T06:09:36.353Z,273
2018-03-03T06:10:06.373Z,283
2018-03-03T06:10:36.374Z,293
2018-03-03T06:11:06.586Z,303
2018-03-03T06:11:36.429Z,313
2018-03-03T06:12:06.517Z,323
2018-03-03T06:12:37.164Z,333
2018-03-03T06:13:06.520Z,347
2018-03-03T06:13:36.589Z,357
2018-03-03T06:14:06.604Z,367
2018-03-03T06:14:36.624Z,380
2018-03-03T06:15:06.676Z,390
2018-03-03T06:15:36.683Z,403
2018-03-03T06:16:06.724Z,413
2018-03-03T06:16:36.757Z,427
2018-03-03T06:17:06.794Z,437
2018-03-03T06:17:36.817Z,450
2018-03-03T06:18:06.903Z,463
2018-03-03T06:18:36.865Z,473
2018-03-03T06:19:06.892Z,487
2018-03-03T06:19:36.929Z,500
2018-03-03T06:20:06.954Z,513
2018-03-03T06:20:36.971Z,527
2018-03-03T06:21:07.100Z,540
2018-03-03T06:21:37.036Z,557
2018-03-03T06:22:07.109Z,570
2018-03-03T06:22:37.144Z,583
2018-03-03T06:23:07.230Z,600
2018-03-03T06:23:37.223Z,613
2018-03-03T06:24:07.247Z,630
2018-03-03T06:24:37.229Z,640
2018-03-03T06:25:07.326Z,657
2018-03-03T06:25:37.288Z,673
2018-03-03T06:26:07.408Z,687
2018-03-03T06:26:37.398Z,703
2018-03-03T06:27:07.446Z,720
2018-03-03T06:27:37.497Z,737
2018-03-03T06:28:07.526Z,753
2018-03-03T06:28:37.513Z,770
2018-03-03T06:29:07.547Z,787
2018-03-03T06:29:37.585Z,803
2018-03-03T06:30:07.578Z,823
2018-03-03T06:30:37.652Z,840
2018-03-03T06:31:07.643Z,853
2018-03-03T06:31:37.725Z,873
2018-03-03T06:32:07.712Z,890
2018-03-03T06:32:37.760Z,907
2018-03-03T06:33:07.802Z,927
2018-03-03T06:33:37.778Z,947
2018-03-03T06:34:07.846Z,967
2018-03-03T06:34:37.831Z,987
2018-03-03T06:35:07.872Z,1003
2018-03-03T06:35:37.894Z,1023
2018-03-03T06:36:07.987Z,1043
2018-03-03T06:36:37.963Z,1063
2018-03-03T06:37:08.009Z,1077
2018-03-03T06:37:38.053Z,1097
2018-03-03T06:38:08.091Z,1113
2018-03-03T06:38:38.073Z,1130
2018-03-03T06:39:08.134Z,1150
2018-03-03T06:39:38.193Z,1167
2018-03-03T06:40:08.210Z,1187
2018-03-03T06:40:38.193Z,1203
2018-03-03T06:41:08.244Z,1223
2018-03-03T06:41:38.287Z,1243
2018-03-03T06:42:08.353Z,1263
2018-03-03T06:42:38.363Z,1280
2018-03-03T06:43:08.466Z,1303
2018-03-03T06:43:38.452Z,1320
2018-03-03T06:44:08.474Z,1343
2018-03-03T06:44:38.506Z,1363
2018-03-03T06:45:08.493Z,1383
2018-03-03T06:45:38.542Z,1407
2018-03-03T06:46:08.610Z,1427
2018-03-03T06:46:38.606Z,1450
2018-03-03T06:47:08.663Z,1473
2018-03-03T06:47:38.624Z,1493
2018-03-03T06:48:08.735Z,1513
2018-03-03T06:48:38.762Z,1537
2018-03-03T06:49:08.772Z,1557
2018-03-03T06:49:38.807Z,1577
2018-03-03T06:50:08.824Z,1597
2018-03-03T06:50:38.865Z,1617
2018-03-03T06:51:08.901Z,1637
2018-03-03T06:51:38.878Z,1657
2018-03-03T06:52:08.970Z,1680
2018-03-03T06:52:38.953Z,1700
2018-03-03T06:53:09.096Z,1717
2018-03-03T06:53:39.061Z,1740
2018-03-03T06:54:09.161Z,1763
2018-03-03T06:54:39.126Z,1783
2018-03-03T06:55:09.204Z,1803
2018-03-03T06:55:39.142Z,1823
2018-03-03T06:56:09.190Z,1843
2018-03-03T06:56:39.211Z,1863
2018-03-03T06:57:09.270Z,1883
2018-03-03T06:57:39.302Z,1903
2018-03-03T06:58:09.800Z,1920
2018-03-03T06:58:39.367Z,1943
2018-03-03T06:59:09.392Z,1967
2018-03-03T06:59:39.397Z,1990
2018-03-03T07:00:09.451Z,2013
2018-03-03T07:00:39.504Z,2037
2018-03-03T07:01:09.516Z,2057
2018-03-03T07:01:39.514Z,2080
2018-03-03T07:02:09.576Z,2100
2018-03-03T07:02:39.559Z,2123
2018-03-03T07:03:09.613Z,2140
2018-03-03T07:03:39.610Z,2163
2018-03-03T07:04:09.662Z,2187
2018-03-03T07:04:39.730Z,2207
2018-03-03T07:05:09.743Z,2230
2018-03-03T07:05:39.734Z,2250
2018-03-03T07:06:09.795Z,2270
2018-03-03T07:06:39.794Z,2290
2018-03-03T07:07:09.850Z,2310
2018-03-03T07:07:39.906Z,2330
2018-03-03T07:08:09.978Z,2347
2018-03-03T07:08:39.952Z,2367
2018-03-03T07:09:09.956Z,2383
2018-03-03T07:09:39.981Z,2403
2018-03-03T07:10:10.047Z,2423
2018-03-03T07:10:40.033Z,2447
2018-03-03T07:11:10.103Z,2463
2018-03-03T07:11:40.227Z,2487
2018-03-03T07:12:10.207Z,2510
2018-03-03T07:12:40.178Z,2533
2018-03-03T07:13:10.380Z,2553
2018-03-03T07:13:40.274Z,2573
2018-03-03T07:14:10.302Z,2600
2018-03-03T07:14:40.337Z,2620
2018-03-03T07:15:10.368Z,2647
2018-03-03T07:15:40.341Z,2673
2018-03-03T07:16:10.421Z,2693
2018-03-03T07:16:40.410Z,2720
2018-03-03T07:17:10.530Z,2750
2018-03-03T07:17:40.466Z,2780
2018-03-03T07:18:10.548Z,2810
2018-03-03T07:18:40.554Z,2840
2018-03-03T07:19:10.652Z,2867
2018-03-03T07:19:40.641Z,2900
2018-03-03T07:20:10.636Z,2927
2018-03-03T07:20:40.652Z,2953
2018-03-03T07:21:10.726Z,2983
2018-03-03T07:21:40.717Z,3010
2018-03-03T07:22:10.767Z,3043
2018-03-03T07:22:40.782Z,3073
2018-03-03T07:23:10.844Z,3100
2018-03-03T07:23:40.835Z,3130
2018-03-03T07:24:10.907Z,3157
2018-03-03T07:24:40.908Z,3193
2018-03-03T07:25:10.942Z,3250
2018-03-03T07:25:40.991Z,3283
2018-03-03T07:26:11.004Z,3350
2018-03-03T07:26:41.081Z,3387
2018-03-03T07:27:11.142Z,3497
2018-03-03T07:27:41.189Z,3690
2018-03-03T07:28:11.189Z,3913
2018-03-03T07:28:41.209Z,4150
2018-03-03T07:29:11.221Z,4547
2018-03-03T07:29:41.203Z,4770
2018-03-03T07:30:11.303Z,4930
2018-03-03T07:30:41.320Z,5030
2018-03-03T07:31:11.383Z,5370
2018-03-03T07:31:41.350Z,5340
2018-03-03T07:32:11.423Z,5457
2018-03-03T07:32:41.436Z,5613
2018-03-03T07:33:11.459Z,5663
2018-03-03T07:33:41.497Z,5850
2018-03-03T07:34:11.518Z,5953
2018-03-03T07:34:41.562Z,6257
2018-03-03T07:35:11.608Z,6437
2018-03-03T07:35:41.628Z,6747
2018-03-03T07:36:11.700Z,6853
2018-03-03T07:36:41.675Z,6197
2018-03-03T07:37:11.736Z,5457
2018-03-03T07:37:41.767Z,5140
2018-03-03T07:38:11.766Z,5193
2018-03-03T07:38:41.769Z,5340
2018-03-03T07:39:11.848Z,5580
2018-03-03T07:39:41.852Z,5327
2018-03-03T07:40:11.905Z,5187
2018-03-03T07:40:41.886Z,5027
2018-03-03T07:41:11.957Z,5060
2018-03-03T07:41:41.982Z,5207
2018-03-03T07:42:12.011Z,5417
2018-03-03T07:42:42.065Z,5503
2018-03-03T07:43:12.082Z,5630
2018-03-03T07:43:42.115Z,5703
2018-03-03T07:44:12.142Z,5747
2018-03-03T07:44:42.184Z,5813
2018-03-03T07:45:12.188Z,6520
2018-03-03T07:45:42.217Z,7013
2018-03-03T07:46:12.268Z,6977
2018-03-03T07:46:42.319Z,6540
2018-03-03T07:47:12.331Z,6650
2018-03-03T07:47:42.345Z,6820
2018-03-03T07:48:12.405Z,7107
2018-03-03T07:48:42.424Z,7460
2018-03-03T07:49:12.471Z,7993
2018-03-03T07:49:42.472Z,7690
2018-03-03T07:50:12.532Z,7880
2018-03-03T07:50:42.531Z,7743
2018-03-03T07:51:12.550Z,7937
2018-03-03T07:51:42.554Z,8070
2018-03-03T07:52:12.631Z,7667
2018-03-03T07:52:42.634Z,7703
2018-03-03T07:53:13.151Z,7840
2018-03-03T07:53:42.701Z,8063
2018-03-03T07:54:12.710Z,8203
2018-03-03T07:54:42.737Z,8487
2018-03-03T07:55:12.908Z,8833
2018-03-03T07:55:42.787Z,9053
2018-03-03T07:56:12.839Z,9393
2018-03-03T07:56:42.866Z,9380
2018-03-03T07:57:12.910Z,9093
2018-03-03T07:57:42.928Z,9303
2018-03-03T07:58:12.965Z,9593
2018-03-03T07:58:42.991Z,9730
2018-03-03T07:59:13.024Z,9517
2018-03-03T07:59:43.041Z,9353
2018-03-03T08:00:13.111Z,9247
2018-03-03T08:00:43.098Z,8883
2018-03-03T08:01:13.165Z,9513
2018-03-03T08:01:43.165Z,9570
2018-03-03T08:02:13.255Z,10023
2018-03-03T08:02:43.274Z,10703
2018-03-03T08:03:13.317Z,10830
2018-03-03T08:03:43.356Z,10857
2018-03-03T08:04:13.387Z,10813
2018-03-03T08:04:43.396Z,10893
2018-03-03T08:05:13.468Z,11073
2018-03-03T08:05:43.438Z,11173
2018-03-03T08:06:13.477Z,11347
2018-03-03T08:06:43.538Z,11520
2018-03-03T08:07:13.550Z,11593
2018-03-03T08:07:43.542Z,11520
2018-03-03T08:08:13.623Z,11640
2018-03-03T08:08:43.631Z,11743
2018-03-03T08:09:13.639Z,11837
2018-03-03T08:09:43.658Z,11913
2018-03-03T08:10:13.748Z,12033
2018-03-03T08:10:43.743Z,12173
2018-03-03T08:11:13.791Z,12353
2018-03-03T08:11:43.802Z,12470
2018-03-03T08:12:13.819Z,12427
2018-03-03T08:13:13.894Z,12610
2018-03-03T08:13:43.903Z,12733
2018-03-03T08:14:13.964Z,12827
2018-03-03T08:14:43.960Z,12983
2018-03-03T08:15:13.998Z,13130
2018-03-03T08:15:44.020Z,13210
2018-03-03T08:16:14.098Z,13273
2018-03-03T08:16:44.128Z,13243
2018-03-03T08:17:14.123Z,13287
2018-03-03T08:17:44.161Z,13427
2018-03-03T08:18:14.247Z,13513
2018-03-03T08:18:44.215Z,13557
2018-03-03T08:19:14.303Z,13600
2018-03-03T08:19:44.306Z,13687
2018-03-03T08:20:14.320Z,13823
2018-03-03T08:20:44.337Z,13883
2018-03-03T08:21:14.428Z,13773
2018-03-03T08:21:44.408Z,13927
2018-03-03T08:22:14.490Z,14130
2018-03-03T08:22:44.454Z,14103
2018-03-03T08:23:14.575Z,14077
2018-03-03T08:23:44.517Z,14243
2018-03-03T08:24:14.595Z,14330
2018-03-03T08:24:44.634Z,14470
2018-03-03T08:25:14.660Z,14537
2018-03-03T08:25:44.688Z,14563
2018-03-03T08:26:14.718Z,14543
2018-03-03T08:26:44.716Z,14610
2018-03-03T08:27:14.781Z,14760
2018-03-03T08:27:44.774Z,14793
2018-03-03T08:28:14.819Z,14830
2018-03-03T08:28:44.856Z,14777
2018-03-03T08:29:14.891Z,14660
2018-03-03T08:29:44.940Z,14670
2018-03-03T08:30:14.979Z,14943
2018-03-03T08:30:44.976Z,15167
2018-03-03T08:31:15.061Z,15307
2018-03-03T08:31:45.089Z,15297
2018-03-03T08:32:15.118Z,15413
2018-03-03T08:32:45.117Z,15503
2018-03-03T08:33:15.141Z,15497
2018-03-03T08:33:45.165Z,15670
2018-03-03T08:34:15.210Z,15443
2018-03-03T08:34:45.243Z,15433
2018-03-03T08:35:15.236Z,15640
2018-03-03T08:35:45.294Z,15693
2018-03-03T08:36:15.339Z,15747
2018-03-03T08:36:45.341Z,15823
2018-03-03T08:37:15.391Z,15947
2018-03-03T08:37:45.423Z,16137
2018-03-03T08:38:15.453Z,16083
2018-03-03T08:38:45.466Z,16100
2018-03-03T08:39:15.547Z,16283
2018-03-03T08:39:45.533Z,16483
2018-03-03T08:40:15.574Z,16490
2018-03-03T08:40:45.570Z,16547
2018-03-03T08:41:15.599Z,16613
2018-03-03T08:41:45.665Z,16587
2018-03-03T08:42:15.682Z,16737
2018-03-03T08:42:45.673Z,16930
2018-03-03T08:43:15.738Z,16957
2018-03-03T08:43:45.737Z,16753
2018-03-03T08:44:15.782Z,16887
2018-03-03T08:44:45.831Z,16860
2018-03-03T08:45:15.851Z,17017
2018-03-03T08:45:45.883Z,17160
2018-03-03T08:46:15.903Z,17190
2018-03-03T08:46:45.917Z,17227
2018-03-03T08:47:16.012Z,17310
2018-03-03T08:47:45.996Z,17397
2018-03-03T08:48:16.031Z,17493
2018-03-03T08:48:46.072Z,17553
2018-03-03T08:49:16.101Z,17620
2018-03-03T08:49:46.143Z,17517
2018-03-03T08:50:16.163Z,17557
2018-03-03T08:50:46.167Z,17433
2018-03-03T08:51:16.207Z,17483
2018-03-03T08:51:46.270Z,17613
2018-03-03T08:52:16.285Z,17890
2018-03-03T08:52:46.340Z,17917
2018-03-03T08:53:16.397Z,17883
2018-03-03T08:53:46.358Z,17763
2018-03-03T08:54:16.456Z,17777
2018-03-03T08:54:46.461Z,17933
2018-03-03T08:55:16.536Z,17807
2018-03-03T08:55:46.522Z,18077
2018-03-03T08:56:16.527Z,18380
2018-03-03T08:56:46.554Z,18473
2018-03-03T08:57:16.655Z,18453
2018-03-03T08:57:46.766Z,18500
2018-03-03T08:58:16.649Z,18720
2018-03-03T08:58:46.714Z,18893
2018-03-03T08:59:16.716Z,18910
2018-03-03T08:59:46.772Z,18900
2018-03-03T09:00:16.770Z,18913
2018-03-03T09:00:46.787Z,19087
2018-03-03T09:01:16.852Z,18980
2018-03-03T09:01:46.845Z,18930
2018-03-03T09:02:16.891Z,19193
2018-03-03T09:02:46.912Z,19167
2018-03-03T09:03:16.953Z,19400
2018-03-03T09:03:46.990Z,19483
2018-03-03T09:04:17.009Z,19003
2018-03-03T09:04:47.054Z,19303
2018-03-03T09:05:17.123Z,19517
2018-03-03T09:05:47.127Z,19493
2018-03-03T09:06:17.153Z,19487
2018-03-03T09:06:47.184Z,19510
2018-03-03T09:07:17.229Z,19607
2018-03-03T09:07:47.232Z,19653
2018-03-03T09:08:17.304Z,19660
2018-03-03T09:08:47.295Z,19813
2018-03-03T09:09:17.352Z,19780
2018-03-03T09:09:47.341Z,20023
2018-03-03T09:10:17.420Z,19973
2018-03-03T09:10:47.407Z,19880
2018-03-03T09:11:17.486Z,20013
2018-03-03T09:11:47.502Z,20043
2018-03-03T09:12:18.016Z,20183
2018-03-03T09:12:47.560Z,20350
2018-03-03T09:13:17.616Z,20277
2018-03-03T09:13:47.653Z,20390
2018-03-03T09:14:17.692Z,20240
2018-03-03T09:14:47.652Z,20537
2018-03-03T09:15:17.725Z,20493
2018-03-03T09:15:47.798Z,20467
2018-03-03T09:16:17.812Z,20650
2018-03-03T09:16:47.807Z,20737
2018-03-03T09:17:17.862Z,20907
2018-03-03T09:17:47.905Z,21097
2018-03-03T09:18:17.919Z,21040
2018-03-03T09:18:47.930Z,20973
2018-03-03T09:19:17.967Z,21057
2018-03-03T09:19:48.008Z,21110
2018-03-03T09:20:18.040Z,21040
2018-03-03T09:20:48.091Z,21290
2018-03-03T09:21:18.096Z,21257
2018-03-03T09:21:48.145Z,21467
2018-03-03T09:22:18.116Z,21693
2018-03-03T09:22:48.198Z,21600
2018-03-03T09:23:18.288Z,21620
2018-03-03T09:23:48.251Z,21600
2018-03-03T09:24:18.280Z,21757
2018-03-03T09:24:48.278Z,21827
2018-03-03T09:25:18.337Z,21850
2018-03-03T09:25:48.338Z,21737
2018-03-03T09:26:18.417Z,22180
2018-03-03T09:26:48.376Z,22077
2018-03-03T09:27:18.444Z,22163
2018-03-03T09:27:48.453Z,22103
2018-03-03T09:28:18.542Z,22280
2018-03-03T09:28:48.544Z,22307
2018-03-03T09:29:18.640Z,22237
2018-03-03T09:29:48.581Z,22130
2018-03-03T09:30:18.641Z,22530
2018-03-03T09:30:48.677Z,22433
2018-03-03T09:31:18.706Z,22453
2018-03-03T09:31:48.713Z,22663
2018-03-03T09:32:18.744Z,22650
2018-03-03T09:32:48.788Z,22693
2018-03-03T09:33:18.804Z,22870
2018-03-03T09:33:48.817Z,23037
2018-03-03T09:34:19.009Z,22893
2018-03-03T09:34:48.924Z,22787
2018-03-03T09:35:18.995Z,22973
2018-03-03T09:35:48.963Z,22927
2018-03-03T09:36:18.987Z,23393
2018-03-03T09:36:48.999Z,23107
2018-03-03T09:37:19.056Z,23340
2018-03-03T09:37:49.095Z,23450
2018-03-03T09:38:19.098Z,23550
2018-03-03T09:38:49.163Z,23567
2018-03-03T09:39:19.158Z,23610
2018-03-03T09:39:49.204Z,23607
2018-03-03T09:40:19.229Z,23687
2018-03-03T09:40:49.338Z,23910
2018-03-03T09:41:19.308Z,23870
2018-03-03T09:41:49.370Z,23863
2018-03-03T09:42:19.370Z,23867
2018-03-03T09:42:49.413Z,23980
2018-03-03T09:43:19.480Z,24073
2018-03-03T09:43:49.469Z,24293
2018-03-03T09:44:19.473Z,24150
2018-03-03T09:44:49.494Z,24503
2018-03-03T09:45:19.593Z,24437
2018-03-03T09:45:49.569Z,24567
2018-03-03T09:46:19.646Z,24913
2018-03-03T09:46:49.621Z,24763
2018-03-03T09:47:19.709Z,24593
2018-03-03T09:47:49.673Z,24877
2018-03-03T09:48:19.752Z,24640
2018-03-03T09:48:49.732Z,24367
2018-03-03T09:49:19.789Z,24737
2018-03-03T09:49:49.787Z,24847
2018-03-03T09:50:19.858Z,24587
2018-03-03T09:50:49.921Z,24763
2018-03-03T09:51:19.903Z,24997
2018-03-03T09:51:49.912Z,25147
2018-03-03T09:52:19.959Z,24673
2018-03-03T09:52:49.985Z,25077
2018-03-03T09:53:20.038Z,25400
2018-03-03T09:53:50.042Z,25177
2018-03-03T09:54:20.097Z,25257
2018-03-03T09:54:50.112Z,25357
2018-03-03T09:55:20.183Z,25243
2018-03-03T09:55:50.294Z,25717
2018-03-03T09:56:20.315Z,25493
2018-03-03T09:56:50.290Z,25817
2018-03-03T09:57:20.330Z,25620
2018-03-03T09:57:50.330Z,25603
2018-03-03T09:58:20.352Z,25563
2018-03-03T09:58:50.381Z,25457
2018-03-03T09:59:20.395Z,25790
2018-03-03T09:59:50.447Z,25833
2018-03-03T10:00:20.523Z,25813
2018-03-03T10:00:50.540Z,25717
2018-03-03T10:01:20.555Z,25937
2018-03-03T10:01:52.333Z,25713
2018-03-03T10:02:20.578Z,25463
2018-03-03T10:02:50.596Z,25977
2018-03-03T10:03:20.681Z,25863
2018-03-03T10:03:50.686Z,25937
2018-03-03T10:04:20.713Z,25840
2018-03-03T10:04:50.721Z,25997
2018-03-03T10:05:20.826Z,26007
2018-03-03T10:05:50.851Z,26117
2018-03-03T10:06:20.826Z,26147
2018-03-03T10:06:50.846Z,26180
2018-03-03T10:07:20.888Z,26410
2018-03-03T10:07:50.908Z,26307
2018-03-03T10:08:20.968Z,26113
2018-03-03T10:08:50.992Z,26523
2018-03-03T10:09:21.052Z,26627
2018-03-03T10:09:51.055Z,26750
2018-03-03T10:10:21.111Z,26603
2018-03-03T10:10:51.177Z,26717
2018-03-03T10:11:21.189Z,26687
2018-03-03T10:11:51.177Z,26627
2018-03-03T10:12:21.263Z,26770
2018-03-03T10:12:51.288Z,26533
2018-03-03T10:13:21.305Z,26860
2018-03-03T10:13:51.356Z,26637
2018-03-03T10:14:21.373Z,26913
2018-03-03T10:14:51.349Z,27213
2018-03-03T10:15:21.421Z,27103
2018-03-03T10:15:51.453Z,27233
2018-03-03T10:16:21.509Z,27510
2018-03-03T10:16:51.462Z,27507
2018-03-03T10:17:21.533Z,27107
2018-03-03T10:17:51.545Z,27337
2018-03-03T10:18:21.571Z,27387
2018-03-03T10:18:51.618Z,27507
2018-03-03T10:19:21.631Z,27100
2018-03-03T10:19:51.671Z,27623
2018-03-03T10:20:21.677Z,27573
2018-03-03T10:20:51.741Z,27407
2018-03-03T10:21:21.847Z,27523
2018-03-03T10:22:21.810Z,27140
2018-03-03T10:22:51.847Z,27187
2018-03-03T10:23:21.867Z,27967
2018-03-03T10:23:51.910Z,28160
2018-03-03T10:24:21.933Z,27917
2018-03-03T10:24:51.950Z,28120
2018-03-03T10:25:22.004Z,27743
2018-03-03T10:25:52.043Z,28233
2018-03-03T10:26:22.100Z,27830
2018-03-03T10:26:52.116Z,27847
2018-03-03T10:27:22.169Z,27893
2018-03-03T10:27:52.159Z,28257
2018-03-03T10:28:22.183Z,27750
2018-03-03T10:28:52.216Z,28300
2018-03-03T10:29:22.267Z,28267
2018-03-03T10:29:52.261Z,28250
2018-03-03T10:30:22.374Z,27873
2018-03-03T10:30:52.345Z,27697
2018-03-03T10:31:22.400Z,27827
2018-03-03T10:31:52.431Z,27793
2018-03-03T10:32:22.436Z,28193
2018-03-03T10:32:52.463Z,27797
2018-03-03T10:33:22.502Z,28153
2018-03-03T10:33:52.547Z,28127
2018-03-03T10:34:22.561Z,28150
2018-03-03T10:34:52.601Z,28213
2018-03-03T10:35:22.640Z,27750
2018-03-03T10:35:52.637Z,28130
2018-03-03T10:36:22.741Z,27987
2018-03-03T10:36:52.788Z,28050
2018-03-03T10:37:22.748Z,28310
2018-03-03T10:37:52.753Z,28617
2018-03-03T10:38:22.816Z,28573
2018-03-03T10:38:52.806Z,28770
2018-03-03T10:39:22.851Z,28477
2018-03-03T10:39:52.891Z,28463
2018-03-03T10:40:22.909Z,28503
2018-03-03T10:40:52.940Z,28357
2018-03-03T10:41:23.004Z,28297
2018-03-03T10:41:52.996Z,27953
2018-03-03T10:42:23.034Z,27777
2018-03-03T10:42:53.051Z,28497
2018-03-03T10:43:23.116Z,28323
2018-03-03T10:43:53.168Z,28447
2018-03-03T10:44:23.171Z,28880
2018-03-03T10:44:53.190Z,28530
2018-03-03T10:45:23.296Z,28543
2018-03-03T10:45:53.248Z,28380
2018-03-03T10:46:23.350Z,28523
2018-03-03T10:46:53.349Z,28393
2018-03-03T10:47:23.374Z,28653
2018-03-03T10:47:53.391Z,28597
2018-03-03T10:48:23.432Z,28857
2018-03-03T10:48:53.464Z,28637
2018-03-03T10:49:23.528Z,28267
2018-03-03T10:49:53.536Z,28637
2018-03-03T10:50:23.559Z,28423
2018-03-03T10:50:53.589Z,28993
2018-03-03T10:51:23.878Z,28573
2018-03-03T10:51:53.659Z,29100
2018-03-03T10:52:53.708Z,28520
2018-03-03T10:53:23.722Z,28793
2018-03-03T10:53:53.779Z,28650
2018-03-03T10:54:23.809Z,29107
2018-03-03T10:54:53.853Z,28867
2018-03-03T10:55:23.879Z,28870
2018-03-03T10:55:53.925Z,29037
2018-03-03T10:56:23.993Z,29393
2018-03-03T10:56:53.967Z,28867
2018-03-03T10:57:24.007Z,29047
2018-03-03T10:57:54.039Z,29020
2018-03-03T10:58:24.054Z,28960
2018-03-03T10:58:54.045Z,29247
2018-03-03T10:59:24.130Z,29153
2018-03-03T10:59:54.138Z,28697
2018-03-03T11:00:24.151Z,28730
2018-03-03T11:00:54.201Z,28810
2018-03-03T11:01:24.227Z,28403
2018-03-03T11:01:54.250Z,28883
2018-03-03T11:02:24.561Z,29037
2018-03-03T11:02:54.330Z,29223
2018-03-03T11:03:24.372Z,29680
2018-03-03T11:03:54.380Z,29233
2018-03-03T11:04:24.476Z,29627
2018-03-03T11:04:54.470Z,29433
2018-03-03T11:05:24.512Z,29203
2018-03-03T11:05:54.529Z,28847
2018-03-03T11:06:24.582Z,28973
2018-03-03T11:06:54.552Z,29290
2018-03-03T11:07:24.704Z,29030
2018-03-03T11:07:54.673Z,29227
2018-03-03T11:08:24.635Z,28723
2018-03-03T11:08:54.704Z,29020
2018-03-03T11:09:54.726Z,29277
2018-03-03T11:10:28.548Z,29550
2018-03-03T11:14:55.076Z,29610
2018-03-03T11:15:25.124Z,29940
2018-03-03T11:15:55.173Z,29320
2018-03-03T11:16:25.180Z,29123
2018-03-03T11:16:55.200Z,29763
2018-03-03T11:17:25.253Z,30003
2018-03-03T11:17:55.257Z,29897
2018-03-03T11:18:25.302Z,29387
2018-03-03T11:18:55.322Z,29423
2018-03-03T11:19:25.353Z,29900
2018-03-03T11:19:55.401Z,29860
2018-03-03T11:20:25.520Z,29967
2018-03-03T11:20:55.718Z,29623
2018-03-03T11:21:25.485Z,29653
2018-03-03T11:21:55.514Z,29550
2018-03-03T11:22:25.541Z,30027
2018-03-03T11:22:55.585Z,29823
2018-03-03T11:23:25.581Z,29370
2018-03-03T11:23:55.629Z,29633
2018-03-03T11:24:25.654Z,29893
2018-03-03T11:24:55.663Z,29793
2018-03-03T11:25:25.750Z,29663
2018-03-03T11:25:55.790Z,29703
2018-03-03T11:26:25.786Z,29727
2018-03-03T11:26:55.854Z,29597
2018-03-03T11:27:26.400Z,29607
2018-03-03T11:27:55.928Z,29887
2018-03-03T11:28:25.917Z,30010
2018-03-03T11:28:55.945Z,29860
2018-03-03T11:29:26.016Z,29787
2018-03-03T11:29:56.022Z,29867
2018-03-03T11:30:26.076Z,29570
2018-03-03T11:30:56.084Z,30067
2018-03-03T11:31:26.153Z,29810
2018-03-03T11:31:56.136Z,29487
2018-03-03T11:32:26.201Z,29763
2018-03-03T11:32:56.136Z,29750
2018-03-03T11:33:26.258Z,29547
2018-03-03T11:33:56.207Z,29413
2018-03-03T11:34:26.292Z,29617
2018-03-03T11:34:56.310Z,29830
2018-03-03T11:35:26.325Z,29673
2018-03-03T11:35:56.351Z,29847
2018-03-03T11:36:26.384Z,29550
2018-03-03T11:36:56.445Z,29503
2018-03-03T11:37:26.477Z,29567
2018-03-03T11:37:56.499Z,29883
2018-03-03T11:38:26.508Z,29593
2018-03-03T11:38:56.551Z,29700
2018-03-03T11:39:26.589Z,29997
2018-03-03T11:39:56.597Z,29857
2018-03-03T11:40:33.133Z,30110
2018-03-03T11:40:56.648Z,30333
2018-03-03T11:41:26.710Z,30280
2018-03-03T11:41:56.741Z,30157
2018-03-03T11:42:26.817Z,30063
2018-03-03T11:42:56.783Z,29653
2018-03-03T11:43:26.830Z,29577
2018-03-03T11:43:56.828Z,29410
2018-03-03T11:44:26.891Z,29340
2018-03-03T11:44:56.857Z,29590
2018-03-03T11:45:26.956Z,29453
2018-03-03T11:45:56.962Z,29620
2018-03-03T11:46:26.998Z,29933
2018-03-03T11:46:57.031Z,30230
2018-03-03T11:47:27.057Z,29813
2018-03-03T11:47:57.081Z,30050
2018-03-03T11:48:27.149Z,30143
2018-03-03T11:48:57.195Z,30597
2018-03-03T11:49:27.215Z,30773
2018-03-03T11:49:57.220Z,30917
2018-03-03T11:50:27.257Z,30080
2018-03-03T11:50:57.302Z,29900
2018-03-03T11:51:27.325Z,30143
2018-03-03T11:51:57.300Z,30293
2018-03-03T11:52:27.391Z,30230
2018-03-03T11:52:57.432Z,29933
2018-03-03T11:53:27.444Z,29890
2018-03-03T11:53:57.431Z,29760
2018-03-03T11:54:27.498Z,29907
2018-03-03T11:54:57.551Z,29670
2018-03-03T11:55:27.528Z,29807
2018-03-03T11:55:57.564Z,29850
2018-03-03T11:56:27.625Z,29897
2018-03-03T11:56:57.597Z,29730
2018-03-03T11:57:27.708Z,29817
2018-03-03T11:57:57.704Z,29903
2018-03-03T11:58:27.721Z,29837
2018-03-03T11:58:57.722Z,29793
2018-03-03T11:59:27.777Z,29237
2018-03-03T11:59:57.795Z,29567
2018-03-03T12:00:27.888Z,29747
2018-03-03T12:00:57.841Z,29783
2018-03-03T12:01:27.903Z,29657
2018-03-03T12:01:57.913Z,29547
2018-03-03T12:02:27.947Z,30020
2018-03-03T12:02:57.984Z,29437
2018-03-03T12:03:28.052Z,29280
2018-03-03T12:03:58.042Z,29533
2018-03-03T12:04:28.254Z,29957
2018-03-03T12:04:58.106Z,29647
2018-03-03T12:05:28.208Z,29820
2018-03-03T12:05:58.163Z,29830
2018-03-03T12:06:28.201Z,29820
2018-03-03T12:06:58.224Z,29513
2018-03-03T12:07:28.285Z,29060
2018-03-03T12:07:58.307Z,28960
2018-03-03T12:08:28.321Z,29117
2018-03-03T12:08:58.353Z,29580
2018-03-03T12:09:28.423Z,29227
2018-03-03T12:09:58.416Z,29457
2018-03-03T12:10:28.481Z,29380
2018-03-03T12:10:58.484Z,29143
2018-03-03T12:11:28.561Z,29353
2018-03-03T12:11:58.537Z,29590
2018-03-03T12:12:28.643Z,29137
2018-03-03T12:12:58.612Z,28883
2018-03-03T12:13:28.632Z,28927
2018-03-03T12:13:58.869Z,29417
2018-03-03T12:14:28.685Z,29377
2018-03-03T12:14:58.722Z,29177
2018-03-03T12:15:28.812Z,28780
2018-03-03T12:15:58.774Z,28827
2018-03-03T12:16:28.807Z,28883
2018-03-03T12:16:58.828Z,29037
2018-03-03T12:17:28.899Z,29043
2018-03-03T12:17:58.891Z,29223
2018-03-03T12:18:28.986Z,29287
2018-03-03T12:18:58.961Z,29870
2018-03-03T12:19:29.004Z,29257
2018-03-03T12:19:59.010Z,29033
2018-03-03T12:20:29.131Z,29020
2018-03-03T12:20:59.074Z,29450
2018-03-03T12:21:29.158Z,29370
2018-03-03T12:21:59.139Z,29280
2018-03-03T12:22:29.229Z,29167
2018-03-03T12:22:59.210Z,29177